createdAt,value
2022-11-29T00:01:06.598Z,22.08
2022-11-29T00:03:34.609Z,26.63
2022-11-29T00:06:08.178Z,22.30
2022-11-29T00:08:36.071Z,23.73
2022-11-29T00:11:07.241Z,23.60
2022-11-29T00:13:33.712Z,25.85
2022-11-29T00:16:12.400Z,28.17
2022-11-29T00:18:38.757Z,24.35
2022-11-29T00:21:08.706Z,26.60
2022-11-29T00:23:36.227Z,26.10
2022-11-29T00:26:07.138Z,26.67
2022-11-29T00:28:34.876Z,23.30
2022-11-29T00:31:12.413Z,26.13
2022-11-29T00:33:38.768Z,22.77
2022-11-29T00:36:05.326Z,24.27
2022-11-29T00:38:31.979Z,26.23
2022-11-29T00:40:58.329Z,22.08
2022-11-29T00:43:24.643Z,23.85
2022-11-29T00:45:51.471Z,25.45
2022-11-29T00:48:17.850Z,24.92
2022-11-29T00:50:44.222Z,23.83
2022-11-29T00:53:11.046Z,20.30
2022-11-29T00:55:37.367Z,21.27
2022-11-29T00:58:03.831Z,23.63
2022-11-29T01:00:30.514Z,24.88
2022-11-29T01:02:56.822Z,22.88
2022-11-29T01:05:23.250Z,24.60
2022-11-29T01:07:50.164Z,22.25
2022-11-29T01:10:16.941Z,26.38
2022-11-29T01:12:43.267Z,23.35
2022-11-29T01:15:10.909Z,21.55
2022-11-29T01:17:38.787Z,27.33
2022-11-29T01:20:07.642Z,25.40
2022-11-29T01:22:35.405Z,26.92
2022-11-29T01:25:01.822Z,29.40
2022-11-29T01:27:29.362Z,23.85
2022-11-29T01:29:56.306Z,20.83
2022-11-29T01:32:22.678Z,24.40
2022-11-29T01:34:49.051Z,27.90
2022-11-29T01:37:15.889Z,24.15
2022-11-29T01:39:42.545Z,20.10
2022-11-29T01:42:12.720Z,25.33
2022-11-29T01:44:39.537Z,25.52
2022-11-29T01:47:05.885Z,25.50
2022-11-29T01:49:37.428Z,26.15
2022-11-29T01:52:11.793Z,23.55
2022-11-29T01:54:47.127Z,28.45
2022-11-29T01:57:14.115Z,21.27
2022-11-29T01:59:48.053Z,21.88
2022-11-29T02:02:22.598Z,25.77
2022-11-29T02:04:49.817Z,24.65
2022-11-29T02:07:16.978Z,21.25
2022-11-29T02:09:43.712Z,22.77
2022-11-29T02:12:19.149Z,23.45
2022-11-29T02:14:58.077Z,24.70
2022-11-29T02:17:33.432Z,21.95
2022-11-29T02:20:28.534Z,25.05
2022-11-29T02:23:19.592Z,24.65
2022-11-29T02:26:02.622Z,20.73
2022-11-29T02:28:49.282Z,18.95
2022-11-29T02:31:54.549Z,24.60
2022-11-29T02:34:57.907Z,20.03
2022-11-29T02:37:58.996Z,20.95
2022-11-29T02:40:51.466Z,24.88
2022-11-29T02:43:51.408Z,20.45
2022-11-29T02:46:59.497Z,26.17
2022-11-29T02:49:44.142Z,22.08
2022-11-29T02:52:25.693Z,21.65
2022-11-29T02:55:04.436Z,18.63
2022-11-29T02:57:43.633Z,23.60
2022-11-29T03:00:15.220Z,27.92
2022-11-29T03:03:02.238Z,28.00
2022-11-29T03:05:37.502Z,28.02
2022-11-29T03:08:31.210Z,28.33
2022-11-29T03:11:07.325Z,30.55
2022-11-29T03:13:53.099Z,24.95
2022-11-29T03:16:44.902Z,29.77
2022-11-29T03:19:30.046Z,28.38
2022-11-29T03:22:04.334Z,32.15
2022-11-29T03:24:51.074Z,31.25
2022-11-29T03:27:28.246Z,33.20
2022-11-29T03:30:02.684Z,28.33
2022-11-29T03:32:39.061Z,29.15
2022-11-29T03:35:30.108Z,28.02
2022-11-29T03:38:24.046Z,26.80
2022-11-29T03:40:57.638Z,24.73
2022-11-29T03:43:35.001Z,24.80
2022-11-29T03:46:10.595Z,26.10
2022-11-29T03:48:44.676Z,23.65
2022-11-29T03:51:21.707Z,27.30
2022-11-29T03:53:57.698Z,22.55
2022-11-29T03:56:35.437Z,29.65
2022-11-29T03:59:10.628Z,30.42
2022-11-29T04:01:55.504Z,27.23
2022-11-29T04:04:45.805Z,29.52
2022-11-29T04:07:24.667Z,29.02
2022-11-29T04:10:20.944Z,29.85
2022-11-29T04:13:25.555Z,24.73
2022-11-29T04:16:10.733Z,24.25
2022-11-29T04:19:11.335Z,28.73
2022-11-29T04:21:43.629Z,25.55
2022-11-29T04:24:29.118Z,27.60
2022-11-29T04:27:19.062Z,29.42
2022-11-29T04:29:51.930Z,24.88
2022-11-29T04:32:25.306Z,26.25
2022-11-29T04:35:16.945Z,25.67
2022-11-29T04:38:17.775Z,27.73
2022-11-29T04:40:56.694Z,22.83
2022-11-29T04:43:32.181Z,27.38
2022-11-29T04:46:11.478Z,25.50
2022-11-29T04:48:59.915Z,28.20
2022-11-29T04:51:43.758Z,26.45
2022-11-29T04:54:39.915Z,26.73
2022-11-29T04:57:18.726Z,27.45
2022-11-29T04:59:53.694Z,27.00
2022-11-29T05:05:18.499Z,23.27
2022-11-29T05:07:52.749Z,28.00
2022-11-29T05:10:39.544Z,26.25
2022-11-29T05:13:37.881Z,24.00
2022-11-29T05:16:15.781Z,17.45
2022-11-29T05:18:57.313Z,25.75
2022-11-29T05:21:47.459Z,23.27
2022-11-29T05:24:51.364Z,21.92
2022-11-29T05:27:46.226Z,21.38
2022-11-29T05:30:19.466Z,23.33
2022-11-29T05:33:05.548Z,23.63
2022-11-29T05:35:52.959Z,25.92
2022-11-29T05:38:50.231Z,27.65
2022-11-29T05:41:24.071Z,20.42
2022-11-29T05:44:07.901Z,21.60
2022-11-29T05:46:48.450Z,22.88
2022-11-29T05:49:34.057Z,26.52
2022-11-29T05:52:14.056Z,18.90
2022-11-29T05:54:47.076Z,23.10
2022-11-29T05:57:47.985Z,21.20
2022-11-29T06:00:17.190Z,20.92
2022-11-29T06:03:06.482Z,22.27
2022-11-29T06:05:51.647Z,24.38
2022-11-29T06:08:46.762Z,23.95
2022-11-29T06:11:28.090Z,20.25
2022-11-29T06:14:36.497Z,22.73
2022-11-29T06:17:25.745Z,21.15
2022-11-29T06:20:17.150Z,21.23
2022-11-29T06:22:57.962Z,23.77
2022-11-29T06:25:34.207Z,25.80
2022-11-29T06:28:25.281Z,21.17
2022-11-29T06:31:03.632Z,19.90
2022-11-29T06:33:58.410Z,20.48
2022-11-29T06:36:48.885Z,23.17
2022-11-29T06:39:15.422Z,20.77
2022-11-29T06:41:42.099Z,24.77
2022-11-29T06:44:10.057Z,24.65
2022-11-29T06:46:49.139Z,24.98
2022-11-29T06:49:25.127Z,24.75
2022-11-29T06:52:13.584Z,25.25
2022-11-29T06:55:11.109Z,21.50
2022-11-29T06:58:06.398Z,23.05
2022-11-29T07:01:02.737Z,24.35
2022-11-29T07:03:54.799Z,23.85
2022-11-29T07:06:25.299Z,21.25
2022-11-29T07:08:56.055Z,24.33
2022-11-29T07:11:22.718Z,22.85
2022-11-29T07:13:50.020Z,22.48
2022-11-29T07:16:25.650Z,19.80
2022-11-29T07:19:18.998Z,20.85
2022-11-29T07:21:58.530Z,21.15
2022-11-29T07:24:35.294Z,20.83
2022-11-29T07:27:20.288Z,24.45
2022-11-29T07:29:56.343Z,19.88
2022-11-29T07:32:38.257Z,22.85
2022-11-29T07:35:12.370Z,23.42
2022-11-29T07:38:01.461Z,20.17
2022-11-29T07:40:52.218Z,20.15
2022-11-29T07:43:48.858Z,20.17
2022-11-29T07:46:15.661Z,18.13
2022-11-29T07:48:42.302Z,20.42
2022-11-29T07:51:09.181Z,20.73
2022-11-29T07:53:41.078Z,21.10
2022-11-29T07:56:09.365Z,20.40
2022-11-29T07:58:36.323Z,21.55
2022-11-29T08:01:03.762Z,19.00
2022-11-29T08:03:31.249Z,20.55
2022-11-29T08:05:57.627Z,18.55
2022-11-29T08:08:23.924Z,20.58
2022-11-29T08:10:50.641Z,19.42
2022-11-29T08:13:20.228Z,18.38
2022-11-29T08:15:47.990Z,19.40
2022-11-29T08:18:16.037Z,17.70
2022-11-29T08:20:42.941Z,20.98
2022-11-29T08:23:11.134Z,19.02
2022-11-29T08:25:37.946Z,18.52
2022-11-29T08:28:05.339Z,23.15
2022-11-29T08:30:31.759Z,20.95
2022-11-29T08:32:58.597Z,19.15
2022-11-29T08:35:25.190Z,24.88
2022-11-29T08:37:51.940Z,23.00
2022-11-29T08:40:18.365Z,21.42
2022-11-29T08:42:44.724Z,22.73
2022-11-29T08:45:12.169Z,22.48
2022-11-29T08:47:39.096Z,19.65
2022-11-29T08:50:12.540Z,20.42
2022-11-29T08:53:00.397Z,23.15
2022-11-29T08:55:31.180Z,21.13
2022-11-29T08:58:03.509Z,18.20
2022-11-29T09:00:30.458Z,22.08
2022-11-29T09:03:17.218Z,21.98
2022-11-29T09:05:43.815Z,19.98
2022-11-29T09:08:10.239Z,21.10
2022-11-29T09:10:38.765Z,20.17
2022-11-29T09:13:05.482Z,22.67
2022-11-29T09:15:31.806Z,19.15
2022-11-29T09:17:58.577Z,20.77
2022-11-29T09:20:25.834Z,19.52
2022-11-29T09:22:52.429Z,23.65
2022-11-29T09:25:18.773Z,20.77
2022-11-29T09:27:45.597Z,23.67
2022-11-29T09:30:12.266Z,23.88
2022-11-29T09:32:38.597Z,20.08
2022-11-29T09:35:05.328Z,21.88
2022-11-29T09:37:31.639Z,24.13
2022-11-29T09:39:57.960Z,20.77
2022-11-29T09:42:42.309Z,20.88
2022-11-29T09:45:19.506Z,22.33
2022-11-29T09:48:09.165Z,26.30
2022-11-29T09:50:46.223Z,22.67
2022-11-29T09:53:56.131Z,21.48
2022-11-29T09:56:30.614Z,16.98
2022-11-29T09:59:02.154Z,20.10
2022-11-29T10:01:34.098Z,21.88
2022-11-29T10:04:05.063Z,19.77
2022-11-29T10:06:38.729Z,19.85
2022-11-29T10:09:33.732Z,21.23
2022-11-29T10:12:07.285Z,18.48
2022-11-29T10:14:46.546Z,17.67
2022-11-29T10:17:23.734Z,18.75
2022-11-29T10:19:57.585Z,20.98
2022-11-29T10:22:44.854Z,16.75
2022-11-29T10:25:21.945Z,18.88
2022-11-29T10:27:48.309Z,18.15
2022-11-29T10:30:16.144Z,19.60
2022-11-29T10:32:45.780Z,21.23
2022-11-29T10:35:17.610Z,18.88
2022-11-29T10:38:01.404Z,18.05
2022-11-29T10:40:35.998Z,16.88
2022-11-29T10:43:02.974Z,17.00
2022-11-29T10:45:39.194Z,15.90
2022-11-29T10:48:15.709Z,16.17
2022-11-29T10:50:52.010Z,17.83
2022-11-29T10:53:26.829Z,17.48
2022-11-29T10:58:28.487Z,14.85
2022-11-29T11:03:55.322Z,14.77
2022-11-29T11:06:28.111Z,15.02
2022-11-29T11:08:57.488Z,16.55
2022-11-29T11:11:33.894Z,15.38
2022-11-29T11:14:02.927Z,16.92
2022-11-29T11:16:34.185Z,16.55
2022-11-29T11:19:33.837Z,16.13
2022-11-29T11:22:02.201Z,13.50
2022-11-29T11:24:36.974Z,22.65
2022-11-29T11:27:03.794Z,18.60
2022-11-29T11:29:44.035Z,18.20
2022-11-29T11:32:18.383Z,16.02
2022-11-29T11:34:56.809Z,12.25
2022-11-29T11:37:26.203Z,14.80
2022-11-29T11:39:57.430Z,11.45
2022-11-29T11:42:37.996Z,13.02
2022-11-29T11:45:05.220Z,14.70
2022-11-29T11:47:35.526Z,12.23
2022-11-29T11:50:04.728Z,23.30
2022-11-29T11:52:39.862Z,15.10
2022-11-29T11:55:21.960Z,13.02
2022-11-29T11:58:04.656Z,14.88
2022-11-29T12:01:16.461Z,18.40
2022-11-29T12:03:39.721Z,14.73
2022-11-29T12:06:06.056Z,17.50
2022-11-29T12:08:34.025Z,16.00
2022-11-29T12:11:07.373Z,13.35
2022-11-29T12:13:39.723Z,14.65
2022-11-29T12:16:15.515Z,11.73
2022-11-29T12:18:51.361Z,13.82
2022-11-29T12:21:26.737Z,13.30
2022-11-29T12:23:52.990Z,12.18
2022-11-29T12:26:58.406Z,14.88
2022-11-29T12:29:27.622Z,13.30
2022-11-29T12:32:15.618Z,14.65
2022-11-29T12:34:45.709Z,16.40
2022-11-29T12:37:48.337Z,13.27
2022-11-29T12:40:28.810Z,15.02
2022-11-29T12:43:46.507Z,11.85
2022-11-29T12:46:16.736Z,15.05
2022-11-29T12:48:57.305Z,13.70
2022-11-29T12:51:48.837Z,16.00
2022-11-29T12:54:39.841Z,13.80
2022-11-29T12:57:38.894Z,14.27
2022-11-29T13:00:14.081Z,14.57
2022-11-29T13:03:02.082Z,14.80
2022-11-29T13:05:43.947Z,13.13
2022-11-29T13:08:22.284Z,14.30
2022-11-29T13:11:19.755Z,16.83
2022-11-29T13:13:51.974Z,13.23
2022-11-29T13:16:37.454Z,14.57
2022-11-29T13:19:33.631Z,11.60
2022-11-29T13:22:02.905Z,9.63
2022-11-29T13:24:42.554Z,11.68
2022-11-29T13:27:25.326Z,11.85
2022-11-29T13:29:52.870Z,9.68
2022-11-29T13:32:31.932Z,11.18
2022-11-29T13:35:21.101Z,12.73
2022-11-29T13:38:26.936Z,10.88
2022-11-29T13:41:11.352Z,11.60
2022-11-29T13:44:19.567Z,15.75
2022-11-29T13:47:05.444Z,14.05
2022-11-29T13:49:53.558Z,13.73
2022-11-29T13:52:43.072Z,13.50
2022-11-29T13:55:31.456Z,16.25
2022-11-29T13:58:19.034Z,15.80
2022-11-29T14:00:45.513Z,16.85
2022-11-29T14:03:24.013Z,13.38
2022-11-29T14:06:03.459Z,13.88
2022-11-29T14:09:16.649Z,15.05
2022-11-29T14:11:36.501Z,15.85
2022-11-29T14:14:05.497Z,16.65
2022-11-29T14:16:32.086Z,14.43
2022-11-29T14:19:11.524Z,13.68
2022-11-29T14:22:17.297Z,13.38
2022-11-29T14:24:56.526Z,12.00
2022-11-29T14:27:23.261Z,12.63
2022-11-29T14:29:49.515Z,12.07
2022-11-29T14:32:25.446Z,13.35
2022-11-29T14:35:11.240Z,13.25
2022-11-29T14:38:00.084Z,12.00
2022-11-29T14:40:41.015Z,12.27
2022-11-29T14:43:32.205Z,11.68
2022-11-29T14:46:27.752Z,11.38
2022-11-29T14:48:57.328Z,11.07
2022-11-29T14:51:28.463Z,12.43
2022-11-29T14:54:19.439Z,13.57
2022-11-29T14:56:47.236Z,11.18
2022-11-29T14:59:45.807Z,14.23
2022-11-29T15:02:32.316Z,14.30
2022-11-29T15:05:20.592Z,13.05
2022-11-29T15:08:13.722Z,15.43
2022-11-29T15:10:44.777Z,12.52
2022-11-29T15:13:15.683Z,10.57
2022-11-29T15:16:13.959Z,11.55
2022-11-29T15:19:12.282Z,10.95
2022-11-29T15:21:54.725Z,10.10
2022-11-29T15:24:28.048Z,14.65
2022-11-29T15:27:00.465Z,15.50
2022-11-29T15:29:28.705Z,13.73
2022-11-29T15:31:57.836Z,12.43
2022-11-29T15:34:40.634Z,12.48
2022-11-29T15:37:12.566Z,11.45
2022-11-29T15:39:40.026Z,14.38
2022-11-29T15:42:14.700Z,12.20
2022-11-29T15:44:48.607Z,12.55
2022-11-29T15:47:27.026Z,11.48
2022-11-29T15:49:54.248Z,12.88
2022-11-29T15:52:36.043Z,11.23
2022-11-29T15:55:10.061Z,10.55
2022-11-29T15:57:46.393Z,5.57
2022-11-29T16:00:20.096Z,12.60
2022-11-29T16:02:56.726Z,11.27
2022-11-29T16:05:26.593Z,11.25
2022-11-29T16:07:57.269Z,9.10
2022-11-29T16:10:43.833Z,9.95
2022-11-29T16:13:25.367Z,11.65
2022-11-29T16:16:21.176Z,10.80
2022-11-29T16:18:49.870Z,9.68
2022-11-29T16:21:30.098Z,8.80
2022-11-29T16:23:57.384Z,11.02
2022-11-29T16:26:32.958Z,13.25
2022-11-29T16:29:00.397Z,11.13
2022-11-29T16:31:35.949Z,11.13
2022-11-29T16:34:34.736Z,10.93
2022-11-29T16:37:06.516Z,11.77
2022-11-29T16:39:38.834Z,12.63
2022-11-29T16:42:28.760Z,10.00
2022-11-29T16:45:02.236Z,11.80
2022-11-29T16:47:30.634Z,9.20
2022-11-29T16:50:03.331Z,11.63
2022-11-29T16:52:34.155Z,10.82
2022-11-29T16:55:00.797Z,9.40
2022-11-29T16:57:29.021Z,8.57
2022-11-29T16:59:55.338Z,10.88
2022-11-29T17:02:21.751Z,11.70
2022-11-29T17:04:48.830Z,10.23
2022-11-29T17:07:22.597Z,9.55
2022-11-29T17:09:50.642Z,9.45
2022-11-29T17:12:17.273Z,9.05
2022-11-29T17:14:43.876Z,10.35
2022-11-29T17:17:18.492Z,9.80
2022-11-29T17:19:45.282Z,9.00
2022-11-29T17:22:12.351Z,9.82
2022-11-29T17:24:43.412Z,8.40
2022-11-29T17:27:12.950Z,14.73
2022-11-29T17:29:39.653Z,8.35
2022-11-29T17:32:06.485Z,8.93
2022-11-29T17:34:33.590Z,8.00
2022-11-29T17:36:59.909Z,8.27
2022-11-29T17:39:26.627Z,7.20
2022-11-29T17:41:52.961Z,9.73
2022-11-29T17:44:19.297Z,9.88
2022-11-29T17:46:46.066Z,11.85
2022-11-29T17:49:12.454Z,11.32
2022-11-29T17:51:51.670Z,9.43
2022-11-29T17:54:18.917Z,10.55
2022-11-29T17:56:45.637Z,7.18
2022-11-29T17:59:12.043Z,8.48
2022-11-29T18:01:38.457Z,11.38
2022-11-29T18:04:07.268Z,8.60
2022-11-29T18:06:38.177Z,8.88
2022-11-29T18:09:07.865Z,7.40
2022-11-29T18:11:47.107Z,8.50
2022-11-29T18:14:18.310Z,9.65
2022-11-29T18:16:45.315Z,9.07
2022-11-29T18:19:14.651Z,7.70
2022-11-29T18:21:41.641Z,9.82
2022-11-29T18:24:08.413Z,9.20
2022-11-29T18:26:36.421Z,10.32
2022-11-29T18:29:04.210Z,9.75
2022-11-29T18:31:33.433Z,10.05
2022-11-29T18:34:02.283Z,9.82
2022-11-29T18:36:34.494Z,10.13
2022-11-29T18:39:03.993Z,10.50
2022-11-29T18:41:31.097Z,10.60
2022-11-29T18:44:06.312Z,12.88
2022-11-29T18:46:35.438Z,13.80
2022-11-29T18:49:03.833Z,12.60
2022-11-29T18:51:31.794Z,12.38
2022-11-29T18:53:58.747Z,12.63
2022-11-29T18:56:28.058Z,14.80
2022-11-29T18:58:58.413Z,14.73
2022-11-29T19:01:27.895Z,13.93
2022-11-29T19:03:57.195Z,10.95
2022-11-29T19:06:39.279Z,12.45
2022-11-29T19:09:10.859Z,18.08
2022-11-29T19:11:37.267Z,15.48
2022-11-29T19:14:07.857Z,15.05
2022-11-29T19:16:34.870Z,12.48
2022-11-29T19:19:01.908Z,10.00
2022-11-29T19:21:35.104Z,15.70
2022-11-29T19:24:04.117Z,15.25
2022-11-29T19:26:31.860Z,16.40
2022-11-29T19:29:00.796Z,13.00
2022-11-29T19:31:28.296Z,14.82
2022-11-29T19:33:55.341Z,16.52
2022-11-29T19:36:27.301Z,15.27
2022-11-29T19:38:54.558Z,16.75
2022-11-29T19:41:27.201Z,11.82
2022-11-29T19:43:56.484Z,16.23
2022-11-29T19:46:25.860Z,18.35
2022-11-29T19:48:54.149Z,20.55
2022-11-29T19:51:21.861Z,13.70
2022-11-29T19:53:51.138Z,21.73
2022-11-29T19:56:17.697Z,17.98
2022-11-29T19:58:45.030Z,19.90
2022-11-29T20:01:14.619Z,20.27
2022-11-29T20:03:41.721Z,19.13
2022-11-29T20:06:10.117Z,17.30
2022-11-29T20:08:37.117Z,20.92
2022-11-29T20:11:14.417Z,20.10
2022-11-29T20:13:42.748Z,18.67
2022-11-29T20:16:15.748Z,21.55
2022-11-29T20:18:50.212Z,21.77
2022-11-29T20:21:20.695Z,24.10
2022-11-29T20:23:47.203Z,24.10
2022-11-29T20:26:18.836Z,21.35
2022-11-29T20:28:47.299Z,21.55
2022-11-29T20:31:16.535Z,22.70
2022-11-29T20:33:44.654Z,23.08
2022-11-29T20:36:36.623Z,24.23
2022-11-29T20:39:05.833Z,21.10
2022-11-29T20:41:58.596Z,23.52
2022-11-29T20:44:38.306Z,20.52
2022-11-29T20:47:16.446Z,22.33
2022-11-29T20:49:43.011Z,20.02
2022-11-29T20:52:31.806Z,25.13
2022-11-29T20:54:58.116Z,24.05
2022-11-29T20:57:24.433Z,19.83
2022-11-29T20:59:51.142Z,19.73
2022-11-29T21:02:17.534Z,19.73
2022-11-29T21:04:44.129Z,20.88
2022-11-29T21:07:11.064Z,18.17
2022-11-29T21:09:37.932Z,16.70
2022-11-29T21:12:04.642Z,17.15
2022-11-29T21:14:31.194Z,16.73
2022-11-29T21:16:58.219Z,19.05
2022-11-29T21:19:25.829Z,22.77
2022-11-29T21:22:14.447Z,21.73
2022-11-29T21:24:40.988Z,22.38
2022-11-29T21:27:12.603Z,17.00
2022-11-29T21:29:39.602Z,20.58
2022-11-29T21:32:06.649Z,19.83
2022-11-29T21:34:33.944Z,23.27
2022-11-29T21:37:00.359Z,25.83
2022-11-29T21:39:33.442Z,23.67
2022-11-29T21:41:59.842Z,21.67
2022-11-29T21:44:26.765Z,13.38
2022-11-29T21:46:53.135Z,21.67
2022-11-29T21:49:22.727Z,26.90
2022-11-29T21:51:49.912Z,21.05
2022-11-29T21:54:16.802Z,18.30
2022-11-29T21:56:48.209Z,25.20
2022-11-29T21:59:16.692Z,23.38
2022-11-29T22:01:47.207Z,17.50
2022-11-29T22:04:13.997Z,20.08
2022-11-29T22:06:42.296Z,23.60
2022-11-29T22:09:09.163Z,25.13
2022-11-29T22:11:42.357Z,25.45
2022-11-29T22:14:14.373Z,26.63
2022-11-29T22:16:45.121Z,25.90
2022-11-29T22:19:12.690Z,23.40
2022-11-29T22:21:44.691Z,25.08
2022-11-29T22:24:12.685Z,28.00
2022-11-29T22:26:39.711Z,21.58
2022-11-29T22:29:06.541Z,22.05
2022-11-29T22:31:35.151Z,23.90
2022-11-29T22:34:01.941Z,24.40
2022-11-29T22:36:28.813Z,21.63
2022-11-29T22:38:55.222Z,24.67
2022-11-29T22:41:22.029Z,21.27
2022-11-29T22:43:48.365Z,20.92
2022-11-29T22:46:20.713Z,30.02
2022-11-29T22:48:51.253Z,17.63
2022-11-29T22:51:30.429Z,26.60
2022-11-29T22:54:00.132Z,23.77
2022-11-29T22:56:29.227Z,22.83
2022-11-29T22:58:55.895Z,20.67
2022-11-29T23:01:24.880Z,22.38
2022-11-29T23:03:56.570Z,21.38
2022-11-29T23:06:28.404Z,28.67
2022-11-29T23:08:57.417Z,21.15
2022-11-29T23:11:29.366Z,23.92
2022-11-29T23:13:55.912Z,24.05
2022-11-29T23:16:25.182Z,21.08
2022-11-29T23:18:53.401Z,26.98
2022-11-29T23:21:28.308Z,26.38
2022-11-29T23:26:33.828Z,21.65
2022-11-29T23:29:00.559Z,23.95
2022-11-29T23:31:26.989Z,27.98
2022-11-29T23:33:53.358Z,25.17
2022-11-29T23:36:20.212Z,27.27
2022-11-29T23:38:46.999Z,32.55
2022-11-29T23:41:13.541Z,31.00
2022-11-29T23:43:41.974Z,27.70
2022-11-29T23:46:12.512Z,34.42
2022-11-29T23:48:38.959Z,30.30
2022-11-29T23:51:05.837Z,17.45
2022-11-29T23:53:32.444Z,31.67
2022-11-29T23:56:00.525Z,31.70
2022-11-29T23:58:28.207Z,28.13
